KBGE/BGE METAR and TAF weather

Enter ICAO airport designator
Station Type Date Time Source
KBGE METAR 2022/06/27 17:15 UTC NOAA

KBGE 271715Z AUTO 05009G16KT 10SM CLR 34/18 A3007 RMK AO2 T03370178


Station Type Date Time Source
KBGE Decoded METAR 2022/06/27 17:15 UTC NOAA

Bainbridge, Decatur County Industrial Air Park Airport, GA, United States (KBGE) 30-58N 084-38W
Jun 27, 2022 - 01:15 PM EDT / 2022.06.27 1715 UTC
Wind: from the NE (050 degrees) at 10 MPH (9 KT) gusting to 18 MPH (16 KT):0
Visibility: 10 mile(s):0
Sky conditions: clear
Temperature: 92.7 F (33.7 C)
Heat index: 94.1 F (34.5 C):1
Dew Point: 64.0 F (17.8 C)
Relative Humidity: 38%
Pressure (altimeter): 30.07 in. Hg (1018 hPa)
ob: KBGE 271715Z AUTO 05009G16KT 10SM CLR 34/18 A3007 RMK AO2 T03370178
cycle: 17

Station Type Date Time Source
KBGE TAF UTC NOAA

Error!

Example: see airport list